sensor_id;sensor_type;location;lat;lon;timestamp;temperature;humidity
48162;DHT22;33950;48.154;16.316;2023-12-14T00:01:12;8.10;99.90
48162;DHT22;33950;48.154;16.316;2023-12-14T00:03:38;8.10;99.90
48162;DHT22;33950;48.154;16.316;2023-12-14T00:06:06;8.20;99.90
48162;DHT22;33950;48.154;16.316;2023-12-14T00:08:32;8.20;99.90
48162;DHT22;33950;48.154;16.316;2023-12-14T00:10:58;8.30;99.90
48162;DHT22;33950;48.154;16.316;2023-12-14T00:13:28;8.30;99.90
48162;DHT22;33950;48.154;16.316;2023-12-14T00:15:53;8.40;99.90
48162;DHT22;33950;48.154;16.316;2023-12-14T00:18:20;8.40;99.90
48162;DHT22;33950;48.154;16.316;2023-12-14T00:20:46;8.40;99.90
48162;DHT22;33950;48.154;16.316;2023-12-14T00:23:12;8.30;99.90
48162;DHT22;33950;48.154;16.316;2023-12-14T00:25:38;8.20;99.90
48162;DHT22;33950;48.154;16.316;2023-12-14T00:28:04;8.00;99.90
48162;DHT22;33950;48.154;16.316;2023-12-14T00:30:30;7.90;99.90
48162;DHT22;33950;48.154;16.316;2023-12-14T00:32:55;7.90;99.90
48162;DHT22;33950;48.154;16.316;2023-12-14T00:35:22;7.80;99.90
48162;DHT22;33950;48.154;16.316;2023-12-14T00:37:48;7.80;99.90
48162;DHT22;33950;48.154;16.316;2023-12-14T00:40:13;7.80;99.90
48162;DHT22;33950;48.154;16.316;2023-12-14T00:42:39;7.70;99.90
48162;DHT22;33950;48.154;16.316;2023-12-14T00:45:05;7.70;99.90
48162;DHT22;33950;48.154;16.316;2023-12-14T00:47:30;7.60;99.90
48162;DHT22;33950;48.154;16.316;2023-12-14T00:49:56;7.50;99.90
48162;DHT22;33950;48.154;16.316;2023-12-14T00:52:23;7.50;99.90
48162;DHT22;33950;48.154;16.316;2023-12-14T00:54:48;7.50;99.90
48162;DHT22;33950;48.154;16.316;2023-12-14T00:57:14;7.40;99.90
48162;DHT22;33950;48.154;16.316;2023-12-14T00:59:40;7.40;99.90
48162;DHT22;33950;48.154;16.316;2023-12-14T01:02:05;7.40;99.90
48162;DHT22;33950;48.154;16.316;2023-12-14T01:04:31;7.30;99.90
48162;DHT22;33950;48.154;16.316;2023-12-14T01:06:57;7.30;99.90
48162;DHT22;33950;48.154;16.316;2023-12-14T01:09:24;7.30;99.90
48162;DHT22;33950;48.154;16.316;2023-12-14T01:11:49;7.30;99.90
48162;DHT22;33950;48.154;16.316;2023-12-14T01:14:15;7.20;99.90
48162;DHT22;33950;48.154;16.316;2023-12-14T01:16:40;7.20;99.90
48162;DHT22;33950;48.154;16.316;2023-12-14T01:19:06;7.30;99.90
48162;DHT22;33950;48.154;16.316;2023-12-14T01:21:32;7.30;99.90
48162;DHT22;33950;48.154;16.316;2023-12-14T01:23:57;7.40;99.90
48162;DHT22;33950;48.154;16.316;2023-12-14T01:26:24;7.50;99.90
48162;DHT22;33950;48.154;16.316;2023-12-14T01:28:50;7.50;99.90
48162;DHT22;33950;48.154;16.316;2023-12-14T01:31:15;7.60;99.90
48162;DHT22;33950;48.154;16.316;2023-12-14T01:33:41;7.60;99.90
48162;DHT22;33950;48.154;16.316;2023-12-14T01:36:07;7.60;99.90
48162;DHT22;33950;48.154;16.316;2023-12-14T01:38:33;7.50;99.90
48162;DHT22;33950;48.154;16.316;2023-12-14T01:40:58;7.40;99.90
48162;DHT22;33950;48.154;16.316;2023-12-14T01:43:26;7.40;99.90
48162;DHT22;33950;48.154;16.316;2023-12-14T01:45:51;7.40;99.90
48162;DHT22;33950;48.154;16.316;2023-12-14T01:48:17;7.40;99.90
48162;DHT22;33950;48.154;16.316;2023-12-14T01:50:43;7.50;99.90
48162;DHT22;33950;48.154;16.316;2023-12-14T01:53:08;7.40;99.90
48162;DHT22;33950;48.154;16.316;2023-12-14T01:55:34;7.40;99.90
48162;DHT22;33950;48.154;16.316;2023-12-14T01:58:00;7.40;99.90
48162;DHT22;33950;48.154;16.316;2023-12-14T02:00:28;7.40;99.90
48162;DHT22;33950;48.154;16.316;2023-12-14T02:02:55;7.50;99.90
48162;DHT22;33950;48.154;16.316;2023-12-14T02:05:21;7.50;99.90
48162;DHT22;33950;48.154;16.316;2023-12-14T02:07:47;7.50;99.90
48162;DHT22;33950;48.154;16.316;2023-12-14T02:10:12;7.60;99.90
48162;DHT22;33950;48.154;16.316;2023-12-14T02:12:38;7.60;99.90
48162;DHT22;33950;48.154;16.316;2023-12-14T02:15:04;7.60;99.90
48162;DHT22;33950;48.154;16.316;2023-12-14T02:17:32;7.70;99.90
48162;DHT22;33950;48.154;16.316;2023-12-14T02:19:57;7.70;99.90
48162;DHT22;33950;48.154;16.316;2023-12-14T02:22:25;7.80;99.90
48162;DHT22;33950;48.154;16.316;2023-12-14T02:24:52;7.80;99.90
48162;DHT22;33950;48.154;16.316;2023-12-14T02:27:17;7.80;99.90
48162;DHT22;33950;48.154;16.316;2023-12-14T02:29:43;7.90;99.90
48162;DHT22;33950;48.154;16.316;2023-12-14T02:32:08;7.90;99.90
48162;DHT22;33950;48.154;16.316;2023-12-14T02:34:34;7.90;99.90
48162;DHT22;33950;48.154;16.316;2023-12-14T02:36:59;8.00;99.90
48162;DHT22;33950;48.154;16.316;2023-12-14T02:39:25;8.00;99.90
48162;DHT22;33950;48.154;16.316;2023-12-14T02:41:52;8.00;99.90
48162;DHT22;33950;48.154;16.316;2023-12-14T02:44:17;8.00;99.90
48162;DHT22;33950;48.154;16.316;2023-12-14T02:46:43;8.00;99.90
48162;DHT22;33950;48.154;16.316;2023-12-14T02:49:09;8.10;99.90
48162;DHT22;33950;48.154;16.316;2023-12-14T02:51:34;8.10;99.90
48162;DHT22;33950;48.154;16.316;2023-12-14T02:54:00;8.10;99.90
48162;DHT22;33950;48.154;16.316;2023-12-14T02:56:25;8.10;99.90
48162;DHT22;33950;48.154;16.316;2023-12-14T02:58:52;8.20;99.90
48162;DHT22;33950;48.154;16.316;2023-12-14T03:01:19;8.20;99.90
48162;DHT22;33950;48.154;16.316;2023-12-14T03:03:45;8.20;99.90
48162;DHT22;33950;48.154;16.316;2023-12-14T03:06:11;8.30;99.90
48162;DHT22;33950;48.154;16.316;2023-12-14T03:08:37;8.30;99.90
48162;DHT22;33950;48.154;16.316;2023-12-14T03:11:02;8.30;99.90
48162;DHT22;33950;48.154;16.316;2023-12-14T03:13:28;8.20;99.90
48162;DHT22;33950;48.154;16.316;2023-12-14T03:15:55;8.20;99.90
48162;DHT22;33950;48.154;16.316;2023-12-14T03:18:21;8.10;99.90
48162;DHT22;33950;48.154;16.316;2023-12-14T03:20:46;8.10;99.90
48162;DHT22;33950;48.154;16.316;2023-12-14T03:23:12;8.10;99.90
48162;DHT22;33950;48.154;16.316;2023-12-14T03:25:37;8.10;99.90
48162;DHT22;33950;48.154;16.316;2023-12-14T03:28:03;8.00;99.90
48162;DHT22;33950;48.154;16.316;2023-12-14T03:30:29;8.00;99.90
48162;DHT22;33950;48.154;16.316;2023-12-14T03:32:55;7.90;99.90
48162;DHT22;33950;48.154;16.316;2023-12-14T03:35:21;7.90;99.90
48162;DHT22;33950;48.154;16.316;2023-12-14T03:37:47;7.90;99.90
48162;DHT22;33950;48.154;16.316;2023-12-14T03:40:13;7.90;99.90
48162;DHT22;33950;48.154;16.316;2023-12-14T03:42:38;7.90;99.90
48162;DHT22;33950;48.154;16.316;2023-12-14T03:45:04;7.80;99.90
48162;DHT22;33950;48.154;16.316;2023-12-14T03:47:30;7.80;99.90
48162;DHT22;33950;48.154;16.316;2023-12-14T03:49:57;7.80;99.90
48162;DHT22;33950;48.154;16.316;2023-12-14T03:52:23;7.80;99.90
48162;DHT22;33950;48.154;16.316;2023-12-14T03:54:48;7.80;99.90
48162;DHT22;33950;48.154;16.316;2023-12-14T03:57:14;7.90;99.90
48162;DHT22;33950;48.154;16.316;2023-12-14T03:59:39;7.90;99.90
48162;DHT22;33950;48.154;16.316;2023-12-14T04:02:06;8.00;99.90
48162;DHT22;33950;48.154;16.316;2023-12-14T04:04:31;8.10;99.90
48162;DHT22;33950;48.154;16.316;2023-12-14T04:06:58;8.10;99.90
48162;DHT22;33950;48.154;16.316;2023-12-14T04:09:24;8.10;99.90
48162;DHT22;33950;48.154;16.316;2023-12-14T04:11:49;8.10;99.90
48162;DHT22;33950;48.154;16.316;2023-12-14T04:14:15;8.10;99.90
48162;DHT22;33950;48.154;16.316;2023-12-14T04:16:41;8.20;99.90
48162;DHT22;33950;48.154;16.316;2023-12-14T04:19:06;8.10;99.90
48162;DHT22;33950;48.154;16.316;2023-12-14T04:21:35;8.10;99.90
48162;DHT22;33950;48.154;16.316;2023-12-14T04:24:02;8.10;99.90
48162;DHT22;33950;48.154;16.316;2023-12-14T04:26:28;8.00;99.90
48162;DHT22;33950;48.154;16.316;2023-12-14T04:28:53;8.00;99.90
48162;DHT22;33950;48.154;16.316;2023-12-14T04:31:19;8.00;99.90
48162;DHT22;33950;48.154;16.316;2023-12-14T04:33:44;7.90;99.90
48162;DHT22;33950;48.154;16.316;2023-12-14T04:36:10;7.80;99.90
48162;DHT22;33950;48.154;16.316;2023-12-14T04:38:36;7.80;99.90
48162;DHT22;33950;48.154;16.316;2023-12-14T04:41:03;7.80;99.90
48162;DHT22;33950;48.154;16.316;2023-12-14T04:43:28;7.80;99.90
48162;DHT22;33950;48.154;16.316;2023-12-14T04:45:55;7.80;99.90
48162;DHT22;33950;48.154;16.316;2023-12-14T04:48:21;7.70;99.90
48162;DHT22;33950;48.154;16.316;2023-12-14T04:50:47;7.70;99.90
48162;DHT22;33950;48.154;16.316;2023-12-14T04:53:12;7.70;99.90
48162;DHT22;33950;48.154;16.316;2023-12-14T04:55:38;7.70;99.90
48162;DHT22;33950;48.154;16.316;2023-12-14T04:58:05;7.60;99.90
48162;DHT22;33950;48.154;16.316;2023-12-14T05:00:30;7.60;99.90
48162;DHT22;33950;48.154;16.316;2023-12-14T05:02:56;7.60;99.90
48162;DHT22;33950;48.154;16.316;2023-12-14T05:05:21;7.70;99.90
48162;DHT22;33950;48.154;16.316;2023-12-14T05:07:47;7.70;99.90
48162;DHT22;33950;48.154;16.316;2023-12-14T05:10:13;7.60;99.90
48162;DHT22;33950;48.154;16.316;2023-12-14T05:12:38;7.60;99.90
48162;DHT22;33950;48.154;16.316;2023-12-14T05:15:06;7.60;99.90
48162;DHT22;33950;48.154;16.316;2023-12-14T05:17:31;7.60;99.90
48162;DHT22;33950;48.154;16.316;2023-12-14T05:19:57;7.60;99.90
48162;DHT22;33950;48.154;16.316;2023-12-14T05:22:24;7.60;99.90
48162;DHT22;33950;48.154;16.316;2023-12-14T05:24:49;7.60;99.90
48162;DHT22;33950;48.154;16.316;2023-12-14T05:27:15;7.50;99.90
48162;DHT22;33950;48.154;16.316;2023-12-14T05:29:40;7.50;99.90
48162;DHT22;33950;48.154;16.316;2023-12-14T05:32:07;7.50;99.90
48162;DHT22;33950;48.154;16.316;2023-12-14T05:34:33;7.50;99.90
48162;DHT22;33950;48.154;16.316;2023-12-14T05:36:59;7.40;99.90
48162;DHT22;33950;48.154;16.316;2023-12-14T05:39:24;7.30;99.90
48162;DHT22;33950;48.154;16.316;2023-12-14T05:41:50;7.30;99.90
48162;DHT22;33950;48.154;16.316;2023-12-14T05:44:15;7.30;99.90
48162;DHT22;33950;48.154;16.316;2023-12-14T05:46:41;7.30;99.90
48162;DHT22;33950;48.154;16.316;2023-12-14T05:49:08;7.30;99.90
48162;DHT22;33950;48.154;16.316;2023-12-14T05:51:34;7.30;99.90
48162;DHT22;33950;48.154;16.316;2023-12-14T05:53:59;7.20;99.90
48162;DHT22;33950;48.154;16.316;2023-12-14T05:56:25;7.20;99.90
48162;DHT22;33950;48.154;16.316;2023-12-14T05:58:51;7.20;99.90
48162;DHT22;33950;48.154;16.316;2023-12-14T06:01:17;7.30;99.90
48162;DHT22;33950;48.154;16.316;2023-12-14T06:03:43;7.20;99.90
48162;DHT22;33950;48.154;16.316;2023-12-14T06:06:10;7.20;99.90
48162;DHT22;33950;48.154;16.316;2023-12-14T06:08:37;7.20;99.90
48162;DHT22;33950;48.154;16.316;2023-12-14T06:11:03;7.20;99.90
48162;DHT22;33950;48.154;16.316;2023-12-14T06:13:31;7.20;99.90
48162;DHT22;33950;48.154;16.316;2023-12-14T06:15:57;7.20;99.90
48162;DHT22;33950;48.154;16.316;2023-12-14T06:18:22;7.20;99.90
48162;DHT22;33950;48.154;16.316;2023-12-14T06:20:48;7.10;99.90
48162;DHT22;33950;48.154;16.316;2023-12-14T06:23:15;7.10;99.90
48162;DHT22;33950;48.154;16.316;2023-12-14T06:25:41;7.10;99.90
48162;DHT22;33950;48.154;16.316;2023-12-14T06:28:06;7.10;99.90
48162;DHT22;33950;48.154;16.316;2023-12-14T06:30:32;7.10;99.90
48162;DHT22;33950;48.154;16.316;2023-12-14T06:32:58;7.10;99.90
48162;DHT22;33950;48.154;16.316;2023-12-14T06:35:23;7.10;99.90
48162;DHT22;33950;48.154;16.316;2023-12-14T06:37:49;7.00;99.90
48162;DHT22;33950;48.154;16.316;2023-12-14T06:40:16;7.00;99.90
48162;DHT22;33950;48.154;16.316;2023-12-14T06:42:42;7.00;99.90
48162;DHT22;33950;48.154;16.316;2023-12-14T06:45:08;7.00;99.90
48162;DHT22;33950;48.154;16.316;2023-12-14T06:47:35;7.10;99.90
48162;DHT22;33950;48.154;16.316;2023-12-14T06:50:01;7.10;99.90
48162;DHT22;33950;48.154;16.316;2023-12-14T06:52:26;7.00;99.90
48162;DHT22;33950;48.154;16.316;2023-12-14T06:54:52;7.00;99.90
48162;DHT22;33950;48.154;16.316;2023-12-14T06:57:19;7.00;99.90
48162;DHT22;33950;48.154;16.316;2023-12-14T06:59:44;7.00;99.90
48162;DHT22;33950;48.154;16.316;2023-12-14T07:02:10;7.00;99.90
48162;DHT22;33950;48.154;16.316;2023-12-14T07:04:36;7.00;99.90
48162;DHT22;33950;48.154;16.316;2023-12-14T07:07:01;7.10;99.90
48162;DHT22;33950;48.154;16.316;2023-12-14T07:09:27;7.10;99.90
48162;DHT22;33950;48.154;16.316;2023-12-14T07:11:53;7.10;99.90
48162;DHT22;33950;48.154;16.316;2023-12-14T07:14:20;7.10;99.90
48162;DHT22;33950;48.154;16.316;2023-12-14T07:16:46;7.00;99.90
48162;DHT22;33950;48.154;16.316;2023-12-14T07:19:11;7.00;99.90
48162;DHT22;33950;48.154;16.316;2023-12-14T07:21:37;6.90;99.90
48162;DHT22;33950;48.154;16.316;2023-12-14T07:24:03;6.90;99.90
48162;DHT22;33950;48.154;16.316;2023-12-14T07:26:28;6.90;99.90
48162;DHT22;33950;48.154;16.316;2023-12-14T07:28:54;6.90;99.90
48162;DHT22;33950;48.154;16.316;2023-12-14T07:31:21;6.90;99.90
48162;DHT22;33950;48.154;16.316;2023-12-14T07:33:47;6.90;99.90
48162;DHT22;33950;48.154;16.316;2023-12-14T07:36:13;6.90;99.90
48162;DHT22;33950;48.154;16.316;2023-12-14T07:38:38;6.90;99.90
48162;DHT22;33950;48.154;16.316;2023-12-14T07:41:04;6.90;99.90
48162;DHT22;33950;48.154;16.316;2023-12-14T07:43:30;6.90;99.90
48162;DHT22;33950;48.154;16.316;2023-12-14T07:45:57;6.90;99.90
48162;DHT22;33950;48.154;16.316;2023-12-14T07:48:24;7.00;99.90
48162;DHT22;33950;48.154;16.316;2023-12-14T07:50:50;7.00;99.90
48162;DHT22;33950;48.154;16.316;2023-12-14T07:53:17;7.00;99.90
48162;DHT22;33950;48.154;16.316;2023-12-14T07:55:42;7.10;99.90
48162;DHT22;33950;48.154;16.316;2023-12-14T07:58:08;7.10;99.90
48162;DHT22;33950;48.154;16.316;2023-12-14T08:00:33;7.00;99.90
48162;DHT22;33950;48.154;16.316;2023-12-14T08:02:59;7.00;99.90
48162;DHT22;33950;48.154;16.316;2023-12-14T08:05:27;7.00;99.90
48162;DHT22;33950;48.154;16.316;2023-12-14T08:07:52;7.00;99.90
48162;DHT22;33950;48.154;16.316;2023-12-14T08:10:19;7.00;99.90
48162;DHT22;33950;48.154;16.316;2023-12-14T08:12:44;7.00;99.90
48162;DHT22;33950;48.154;16.316;2023-12-14T08:15:12;7.00;99.90
48162;DHT22;33950;48.154;16.316;2023-12-14T08:17:38;7.00;99.90
48162;DHT22;33950;48.154;16.316;2023-12-14T08:20:04;7.00;99.90
48162;DHT22;33950;48.154;16.316;2023-12-14T08:22:35;6.90;99.90
48162;DHT22;33950;48.154;16.316;2023-12-14T08:25:01;7.00;99.90
48162;DHT22;33950;48.154;16.316;2023-12-14T08:27:26;7.00;99.90
48162;DHT22;33950;48.154;16.316;2023-12-14T08:29:52;7.10;99.90
48162;DHT22;33950;48.154;16.316;2023-12-14T08:32:17;7.10;99.90
48162;DHT22;33950;48.154;16.316;2023-12-14T08:34:43;7.10;99.90
48162;DHT22;33950;48.154;16.316;2023-12-14T08:37:09;7.10;99.90
48162;DHT22;33950;48.154;16.316;2023-12-14T08:39:35;7.10;99.90
48162;DHT22;33950;48.154;16.316;2023-12-14T08:42:01;7.20;99.90
48162;DHT22;33950;48.154;16.316;2023-12-14T08:44:27;7.20;99.90
48162;DHT22;33950;48.154;16.316;2023-12-14T08:46:52;7.20;99.90
48162;DHT22;33950;48.154;16.316;2023-12-14T08:49:18;7.30;99.90
48162;DHT22;33950;48.154;16.316;2023-12-14T08:51:44;7.20;99.90
48162;DHT22;33950;48.154;16.316;2023-12-14T08:54:10;7.30;99.90
48162;DHT22;33950;48.154;16.316;2023-12-14T08:56:37;7.30;99.90
48162;DHT22;33950;48.154;16.316;2023-12-14T08:59:02;7.30;99.90
48162;DHT22;33950;48.154;16.316;2023-12-14T09:01:29;7.30;99.90
48162;DHT22;33950;48.154;16.316;2023-12-14T09:03:54;7.30;99.90
48162;DHT22;33950;48.154;16.316;2023-12-14T09:06:20;7.30;99.90
48162;DHT22;33950;48.154;16.316;2023-12-14T09:08:49;7.30;99.90
48162;DHT22;33950;48.154;16.316;2023-12-14T09:11:14;7.30;99.90
48162;DHT22;33950;48.154;16.316;2023-12-14T09:13:42;7.30;99.90
48162;DHT22;33950;48.154;16.316;2023-12-14T09:16:08;7.40;99.90
48162;DHT22;33950;48.154;16.316;2023-12-14T09:18:34;7.40;99.90
48162;DHT22;33950;48.154;16.316;2023-12-14T09:20:59;7.40;99.90
48162;DHT22;33950;48.154;16.316;2023-12-14T09:23:25;7.40;99.90
48162;DHT22;33950;48.154;16.316;2023-12-14T09:25:53;7.40;99.90
48162;DHT22;33950;48.154;16.316;2023-12-14T09:28:21;7.40;99.90
48162;DHT22;33950;48.154;16.316;2023-12-14T09:30:51;7.40;99.90
48162;DHT22;33950;48.154;16.316;2023-12-14T09:33:16;7.40;99.90
48162;DHT22;33950;48.154;16.316;2023-12-14T09:35:42;7.50;99.90
48162;DHT22;33950;48.154;16.316;2023-12-14T09:38:09;7.50;99.90
48162;DHT22;33950;48.154;16.316;2023-12-14T09:40:34;7.40;99.90
48162;DHT22;33950;48.154;16.316;2023-12-14T09:43:00;7.40;99.90
48162;DHT22;33950;48.154;16.316;2023-12-14T09:45:27;7.50;99.90
48162;DHT22;33950;48.154;16.316;2023-12-14T09:47:55;7.40;99.90
48162;DHT22;33950;48.154;16.316;2023-12-14T09:50:21;7.50;99.90
48162;DHT22;33950;48.154;16.316;2023-12-14T09:52:47;7.50;99.90
48162;DHT22;33950;48.154;16.316;2023-12-14T09:55:14;7.50;99.90
48162;DHT22;33950;48.154;16.316;2023-12-14T09:57:40;7.60;99.90
48162;DHT22;33950;48.154;16.316;2023-12-14T10:00:06;7.60;99.90
48162;DHT22;33950;48.154;16.316;2023-12-14T10:02:35;7.60;99.90
48162;DHT22;33950;48.154;16.316;2023-12-14T10:05:02;7.60;99.90
48162;DHT22;33950;48.154;16.316;2023-12-14T10:07:29;7.60;99.90
48162;DHT22;33950;48.154;16.316;2023-12-14T10:09:56;7.70;99.90
48162;DHT22;33950;48.154;16.316;2023-12-14T10:12:34;7.60;99.90
48162;DHT22;33950;48.154;16.316;2023-12-14T10:15:05;7.70;99.90
48162;DHT22;33950;48.154;16.316;2023-12-14T10:17:31;7.70;99.90
48162;DHT22;33950;48.154;16.316;2023-12-14T10:19:57;7.70;99.90
48162;DHT22;33950;48.154;16.316;2023-12-14T10:22:27;7.80;99.90
48162;DHT22;33950;48.154;16.316;2023-12-14T10:24:56;7.80;99.90
48162;DHT22;33950;48.154;16.316;2023-12-14T10:27:22;7.90;99.90
48162;DHT22;33950;48.154;16.316;2023-12-14T10:29:48;8.00;99.90
48162;DHT22;33950;48.154;16.316;2023-12-14T10:32:14;8.10;99.90
48162;DHT22;33950;48.154;16.316;2023-12-14T10:34:39;8.20;99.90
48162;DHT22;33950;48.154;16.316;2023-12-14T10:37:06;8.30;99.90
48162;DHT22;33950;48.154;16.316;2023-12-14T10:39:34;8.50;99.90
48162;DHT22;33950;48.154;16.316;2023-12-14T10:42:02;8.70;99.90
48162;DHT22;33950;48.154;16.316;2023-12-14T10:44:27;8.60;99.90
48162;DHT22;33950;48.154;16.316;2023-12-14T10:46:54;8.60;99.90
48162;DHT22;33950;48.154;16.316;2023-12-14T10:49:21;8.60;99.90
48162;DHT22;33950;48.154;16.316;2023-12-14T10:51:47;8.50;99.90
48162;DHT22;33950;48.154;16.316;2023-12-14T10:54:13;8.30;99.90
48162;DHT22;33950;48.154;16.316;2023-12-14T10:56:41;8.20;99.90
48162;DHT22;33950;48.154;16.316;2023-12-14T10:59:07;8.10;99.90
48162;DHT22;33950;48.154;16.316;2023-12-14T11:01:33;8.10;99.90
48162;DHT22;33950;48.154;16.316;2023-12-14T11:04:00;8.00;99.90
48162;DHT22;33950;48.154;16.316;2023-12-14T11:06:30;8.00;99.90
48162;DHT22;33950;48.154;16.316;2023-12-14T11:08:57;8.10;99.90
48162;DHT22;33950;48.154;16.316;2023-12-14T11:11:27;8.10;99.90
48162;DHT22;33950;48.154;16.316;2023-12-14T11:13:54;8.10;99.90
48162;DHT22;33950;48.154;16.316;2023-12-14T11:16:20;8.10;99.90
48162;DHT22;33950;48.154;16.316;2023-12-14T11:18:46;8.20;99.90
48162;DHT22;33950;48.154;16.316;2023-12-14T11:21:14;8.30;99.90
48162;DHT22;33950;48.154;16.316;2023-12-14T11:23:43;8.40;99.90
48162;DHT22;33950;48.154;16.316;2023-12-14T11:26:09;8.50;99.90
48162;DHT22;33950;48.154;16.316;2023-12-14T11:28:35;8.50;99.90
48162;DHT22;33950;48.154;16.316;2023-12-14T11:31:02;8.40;99.90
48162;DHT22;33950;48.154;16.316;2023-12-14T11:33:32;8.40;99.90
48162;DHT22;33950;48.154;16.316;2023-12-14T11:35:57;8.40;99.90
48162;DHT22;33950;48.154;16.316;2023-12-14T11:38:24;8.40;99.90
48162;DHT22;33950;48.154;16.316;2023-12-14T11:40:50;8.40;99.90
48162;DHT22;33950;48.154;16.316;2023-12-14T11:43:15;8.40;99.90
48162;DHT22;33950;48.154;16.316;2023-12-14T11:45:41;8.40;99.90
48162;DHT22;33950;48.154;16.316;2023-12-14T11:48:09;8.40;99.90
48162;DHT22;33950;48.154;16.316;2023-12-14T11:50:36;8.40;99.90
48162;DHT22;33950;48.154;16.316;2023-12-14T11:53:02;8.40;99.90
48162;DHT22;33950;48.154;16.316;2023-12-14T11:55:28;8.40;99.90
48162;DHT22;33950;48.154;16.316;2023-12-14T11:57:55;8.40;99.90
48162;DHT22;33950;48.154;16.316;2023-12-14T12:00:23;8.70;99.90
48162;DHT22;33950;48.154;16.316;2023-12-14T12:02:49;8.80;99.90
48162;DHT22;33950;48.154;16.316;2023-12-14T12:05:16;8.90;99.90
48162;DHT22;33950;48.154;16.316;2023-12-14T12:07:44;8.90;99.90
48162;DHT22;33950;48.154;16.316;2023-12-14T12:10:09;8.90;99.90
48162;DHT22;33950;48.154;16.316;2023-12-14T12:12:35;8.90;99.90
48162;DHT22;33950;48.154;16.316;2023-12-14T12:15:01;8.90;99.90
48162;DHT22;33950;48.154;16.316;2023-12-14T12:17:27;8.90;99.90
48162;DHT22;33950;48.154;16.316;2023-12-14T12:19:53;9.10;99.90
48162;DHT22;33950;48.154;16.316;2023-12-14T12:22:20;9.40;99.90
48162;DHT22;33950;48.154;16.316;2023-12-14T12:24:45;9.60;99.90
48162;DHT22;33950;48.154;16.316;2023-12-14T12:27:11;9.60;99.90
48162;DHT22;33950;48.154;16.316;2023-12-14T12:29:37;9.50;99.90
48162;DHT22;33950;48.154;16.316;2023-12-14T12:32:02;9.60;99.90
48162;DHT22;33950;48.154;16.316;2023-12-14T12:34:28;9.80;99.90
48162;DHT22;33950;48.154;16.316;2023-12-14T12:36:54;9.70;99.90
48162;DHT22;33950;48.154;16.316;2023-12-14T12:39:21;9.50;99.90
48162;DHT22;33950;48.154;16.316;2023-12-14T12:41:47;9.30;99.90
48162;DHT22;33950;48.154;16.316;2023-12-14T12:44:12;9.20;99.90
48162;DHT22;33950;48.154;16.316;2023-12-14T12:46:38;9.10;99.90
48162;DHT22;33950;48.154;16.316;2023-12-14T12:49:04;9.00;99.90
48162;DHT22;33950;48.154;16.316;2023-12-14T12:51:30;8.90;99.90
48162;DHT22;33950;48.154;16.316;2023-12-14T12:53:56;8.90;99.90
48162;DHT22;33950;48.154;16.316;2023-12-14T12:56:24;8.80;99.90
48162;DHT22;33950;48.154;16.316;2023-12-14T12:58:49;8.90;99.90
48162;DHT22;33950;48.154;16.316;2023-12-14T13:01:17;8.90;99.90
48162;DHT22;33950;48.154;16.316;2023-12-14T13:03:43;8.90;99.90
48162;DHT22;33950;48.154;16.316;2023-12-14T13:06:08;8.80;99.90
48162;DHT22;33950;48.154;16.316;2023-12-14T13:08:34;8.70;99.90
48162;DHT22;33950;48.154;16.316;2023-12-14T13:11:00;8.50;99.90
48162;DHT22;33950;48.154;16.316;2023-12-14T13:13:28;8.40;99.90
48162;DHT22;33950;48.154;16.316;2023-12-14T13:15:53;8.40;99.90
48162;DHT22;33950;48.154;16.316;2023-12-14T13:18:19;8.30;99.90
48162;DHT22;33950;48.154;16.316;2023-12-14T13:20:45;8.30;99.90
48162;DHT22;33950;48.154;16.316;2023-12-14T13:23:11;8.20;99.90
48162;DHT22;33950;48.154;16.316;2023-12-14T13:25:36;8.20;99.90
48162;DHT22;33950;48.154;16.316;2023-12-14T13:28:02;8.10;99.90
48162;DHT22;33950;48.154;16.316;2023-12-14T13:30:31;8.20;99.90
48162;DHT22;33950;48.154;16.316;2023-12-14T13:32:57;8.10;99.90
48162;DHT22;33950;48.154;16.316;2023-12-14T13:35:22;8.00;99.90
48162;DHT22;33950;48.154;16.316;2023-12-14T13:37:50;8.00;99.90
48162;DHT22;33950;48.154;16.316;2023-12-14T13:40:16;8.00;99.90
48162;DHT22;33950;48.154;16.316;2023-12-14T13:42:44;8.00;99.90
48162;DHT22;33950;48.154;16.316;2023-12-14T13:45:10;8.00;99.90
48162;DHT22;33950;48.154;16.316;2023-12-14T13:47:38;8.10;99.90
48162;DHT22;33950;48.154;16.316;2023-12-14T13:50:09;8.10;99.90
48162;DHT22;33950;48.154;16.316;2023-12-14T13:52:37;8.20;99.90
48162;DHT22;33950;48.154;16.316;2023-12-14T13:55:04;8.20;99.90
48162;DHT22;33950;48.154;16.316;2023-12-14T13:57:31;8.20;99.90
48162;DHT22;33950;48.154;16.316;2023-12-14T14:00:00;8.10;99.90
48162;DHT22;33950;48.154;16.316;2023-12-14T14:02:29;8.10;99.90
48162;DHT22;33950;48.154;16.316;2023-12-14T14:04:56;8.00;99.90
48162;DHT22;33950;48.154;16.316;2023-12-14T14:07:24;7.90;99.90
48162;DHT22;33950;48.154;16.316;2023-12-14T14:09:50;7.80;99.90
48162;DHT22;33950;48.154;16.316;2023-12-14T14:12:16;7.70;99.90
48162;DHT22;33950;48.154;16.316;2023-12-14T14:14:44;7.70;99.90
48162;DHT22;33950;48.154;16.316;2023-12-14T14:17:10;7.60;99.90
48162;DHT22;33950;48.154;16.316;2023-12-14T14:19:36;7.60;99.90
48162;DHT22;33950;48.154;16.316;2023-12-14T14:22:03;7.60;99.90
48162;DHT22;33950;48.154;16.316;2023-12-14T14:24:29;7.50;99.90
48162;DHT22;33950;48.154;16.316;2023-12-14T14:26:56;7.50;99.90
48162;DHT22;33950;48.154;16.316;2023-12-14T14:29:22;7.50;99.90
48162;DHT22;33950;48.154;16.316;2023-12-14T14:31:50;7.40;99.90
48162;DHT22;33950;48.154;16.316;2023-12-14T14:34:16;7.50;99.90
48162;DHT22;33950;48.154;16.316;2023-12-14T14:36:42;7.50;99.90
48162;DHT22;33950;48.154;16.316;2023-12-14T14:39:10;7.50;99.90
48162;DHT22;33950;48.154;16.316;2023-12-14T14:41:36;7.50;99.90
48162;DHT22;33950;48.154;16.316;2023-12-14T14:44:02;7.40;99.90
48162;DHT22;33950;48.154;16.316;2023-12-14T14:46:27;7.40;99.90
48162;DHT22;33950;48.154;16.316;2023-12-14T14:48:54;7.30;99.90
48162;DHT22;33950;48.154;16.316;2023-12-14T14:51:20;7.20;99.90
48162;DHT22;33950;48.154;16.316;2023-12-14T14:53:46;7.20;99.90
48162;DHT22;33950;48.154;16.316;2023-12-14T14:56:14;7.20;99.90
48162;DHT22;33950;48.154;16.316;2023-12-14T14:58:39;7.20;99.90
48162;DHT22;33950;48.154;16.316;2023-12-14T15:01:06;7.20;99.90
48162;DHT22;33950;48.154;16.316;2023-12-14T15:03:31;7.20;99.90
48162;DHT22;33950;48.154;16.316;2023-12-14T15:05:57;7.30;99.90
48162;DHT22;33950;48.154;16.316;2023-12-14T15:08:22;7.30;99.90
48162;DHT22;33950;48.154;16.316;2023-12-14T15:10:48;7.30;99.90
48162;DHT22;33950;48.154;16.316;2023-12-14T15:13:15;7.30;99.90
48162;DHT22;33950;48.154;16.316;2023-12-14T15:15:42;7.30;99.90
48162;DHT22;33950;48.154;16.316;2023-12-14T15:18:08;7.30;99.90
48162;DHT22;33950;48.154;16.316;2023-12-14T15:20:35;7.30;99.90
48162;DHT22;33950;48.154;16.316;2023-12-14T15:23:01;7.40;99.90